createdAt,value
2022-12-11T00:00:22.408Z,36.09
2022-12-11T00:01:22.468Z,35.93
2022-12-11T00:02:22.441Z,39.16
2022-12-11T00:03:22.421Z,35.77
2022-12-11T00:04:22.343Z,38.19
2022-12-11T00:05:22.382Z,42.70
2022-12-11T00:06:22.336Z,36.42
2022-12-11T00:07:22.332Z,33.84
2022-12-11T00:08:22.497Z,41.41
2022-12-11T00:09:22.299Z,35.45
2022-12-11T00:10:22.262Z,34.64
2022-12-11T00:11:22.276Z,35.29
2022-12-11T00:12:22.236Z,35.61
2022-12-11T00:13:22.259Z,34.16
2022-12-11T00:14:22.386Z,36.90
2022-12-11T00:15:22.215Z,36.25
2022-12-11T00:16:26.663Z,34.97
2022-12-11T00:17:23.199Z,36.58
2022-12-11T00:18:22.161Z,34.32
2022-12-11T00:19:22.184Z,34.32
2022-12-11T00:20:22.203Z,34.32
2022-12-11T00:21:22.148Z,34.16
2022-12-11T00:22:22.094Z,33.84
2022-12-11T00:23:22.110Z,33.68
2022-12-11T00:24:22.073Z,34.32
2022-12-11T00:25:22.081Z,34.16
2022-12-11T00:26:22.094Z,34.00
2022-12-11T00:27:22.050Z,34.00
2022-12-11T00:28:22.011Z,34.32
2022-12-11T00:29:22.073Z,33.84
2022-12-11T00:30:21.990Z,34.16
2022-12-11T00:31:22.024Z,34.16
2022-12-11T00:32:22.246Z,34.16
2022-12-11T00:33:21.969Z,34.32
2022-12-11T00:34:21.930Z,34.00
2022-12-11T00:35:21.943Z,34.48
2022-12-11T00:36:21.900Z,34.64
2022-12-11T00:37:22.028Z,34.16
2022-12-11T00:38:22.136Z,34.16
2022-12-11T00:39:21.891Z,34.00
2022-12-11T00:40:21.842Z,34.48
2022-12-11T00:41:21.857Z,34.32
2022-12-11T00:42:21.821Z,34.16
2022-12-11T00:43:21.847Z,34.32
2022-12-11T00:44:21.939Z,34.00
2022-12-11T00:45:21.842Z,33.84
2022-12-11T00:46:21.972Z,34.00
2022-12-11T00:47:21.794Z,34.00
2022-12-11T00:48:21.786Z,33.84
2022-12-11T00:49:21.757Z,33.68
2022-12-11T00:50:22.270Z,33.84
2022-12-11T00:51:21.831Z,33.84
2022-12-11T00:52:21.681Z,34.00
2022-12-11T00:53:21.700Z,34.00
2022-12-11T00:54:21.677Z,33.68
2022-12-11T00:55:21.671Z,33.84
2022-12-11T00:56:22.195Z,33.84
2022-12-11T00:57:21.652Z,34.16
2022-12-11T00:58:21.599Z,34.00
2022-12-11T00:59:21.635Z,33.84
2022-12-11T01:00:21.605Z,34.32
2022-12-11T01:01:21.626Z,33.84
2022-12-11T01:02:21.749Z,34.16
2022-12-11T01:03:21.550Z,34.32
2022-12-11T01:04:21.551Z,34.00
2022-12-11T01:05:21.555Z,33.84
2022-12-11T01:06:21.499Z,34.16
2022-12-11T01:07:21.512Z,33.84
2022-12-11T01:08:21.677Z,33.84
2022-12-11T01:09:21.475Z,34.16
2022-12-11T01:10:22.209Z,34.00
2022-12-11T01:11:21.458Z,33.84
2022-12-11T01:12:21.446Z,34.00
2022-12-11T01:13:21.429Z,34.32
2022-12-11T01:14:21.547Z,34.00
2022-12-11T01:15:21.451Z,34.00
2022-12-11T01:16:21.423Z,34.00
2022-12-11T01:17:21.543Z,34.16
2022-12-11T01:18:21.331Z,34.16
2022-12-11T01:19:21.394Z,34.16
2022-12-11T01:20:21.688Z,34.16
2022-12-11T01:21:21.313Z,34.32
2022-12-11T01:22:21.274Z,34.48
2022-12-11T01:23:21.319Z,34.16
2022-12-11T01:24:21.270Z,34.32
2022-12-11T01:25:21.297Z,34.00
2022-12-11T01:26:21.385Z,34.32
2022-12-11T01:27:21.236Z,34.16
2022-12-11T01:28:21.191Z,34.16
2022-12-11T01:29:21.200Z,34.16
2022-12-11T01:30:21.229Z,34.48
2022-12-11T01:31:21.236Z,34.32
2022-12-11T01:32:21.267Z,34.32
2022-12-11T01:33:21.157Z,34.32
2022-12-11T01:34:21.145Z,34.00
2022-12-11T01:35:21.126Z,34.16
2022-12-11T01:36:21.082Z,33.84
2022-12-11T01:37:21.081Z,33.84
2022-12-11T01:38:21.561Z,34.16
2022-12-11T01:39:21.134Z,34.00
2022-12-11T01:40:21.064Z,34.16
2022-12-11T01:41:21.045Z,34.16
2022-12-11T01:42:21.013Z,34.00
2022-12-11T01:43:21.022Z,34.16
2022-12-11T01:44:21.013Z,34.16
2022-12-11T01:45:21.046Z,34.32
2022-12-11T01:46:20.999Z,34.16
2022-12-11T01:47:20.951Z,34.16
2022-12-11T01:48:20.917Z,33.84
2022-12-11T01:49:20.944Z,34.00
2022-12-11T01:50:20.930Z,34.16
2022-12-11T01:51:21.078Z,34.16
2022-12-11T01:52:20.881Z,34.16
2022-12-11T01:53:20.903Z,34.48
2022-12-11T01:54:20.844Z,34.32
2022-12-11T01:55:20.841Z,34.00
2022-12-11T01:56:20.850Z,34.00
2022-12-11T01:57:20.958Z,34.00
2022-12-11T01:58:20.794Z,34.16
2022-12-11T01:59:20.785Z,34.32
2022-12-11T02:00:20.771Z,34.32
2022-12-11T02:01:20.970Z,34.32
2022-12-11T02:02:20.880Z,34.48
2022-12-11T02:03:20.876Z,33.84
2022-12-11T02:04:20.705Z,34.48
2022-12-11T02:05:20.710Z,34.48
2022-12-11T02:06:20.691Z,34.16
2022-12-11T02:07:20.703Z,34.32
2022-12-11T02:08:20.973Z,34.16
2022-12-11T02:09:20.849Z,34.32
2022-12-11T02:10:21.531Z,34.00
2022-12-11T02:11:20.632Z,33.84
2022-12-11T02:12:20.705Z,34.16
2022-12-11T02:13:21.401Z,34.00
2022-12-11T02:14:20.640Z,34.16
2022-12-11T02:15:20.731Z,34.16
2022-12-11T02:16:21.467Z,34.80
2022-12-11T02:17:20.596Z,34.16
2022-12-11T02:18:20.569Z,34.16
2022-12-11T02:19:20.583Z,34.00
2022-12-11T02:20:20.637Z,33.84
2022-12-11T02:21:20.656Z,33.68
2022-12-11T02:22:20.509Z,34.16
2022-12-11T02:23:20.508Z,34.00
2022-12-11T02:24:20.545Z,33.84
2022-12-11T02:25:20.446Z,34.00
2022-12-11T02:26:20.418Z,34.00
2022-12-11T02:27:20.607Z,34.00
2022-12-11T02:28:20.376Z,34.48
2022-12-11T02:29:20.388Z,34.16
2022-12-11T02:30:20.340Z,34.32
2022-12-11T02:31:20.373Z,33.84
2022-12-11T02:32:20.439Z,35.29
2022-12-11T02:33:20.491Z,34.48
2022-12-11T02:34:20.347Z,42.38
2022-12-11T02:35:20.296Z,34.16
2022-12-11T02:36:20.271Z,34.16
2022-12-11T02:37:20.383Z,34.48
2022-12-11T02:38:20.270Z,33.84
2022-12-11T02:39:20.375Z,34.16
2022-12-11T02:40:20.202Z,34.00
2022-12-11T02:41:20.226Z,34.48
2022-12-11T02:42:20.193Z,34.16
2022-12-11T02:43:20.204Z,34.32
2022-12-11T02:44:20.532Z,34.32
2022-12-11T02:45:20.310Z,34.16
2022-12-11T02:46:20.164Z,34.32
2022-12-11T02:47:20.138Z,34.16
2022-12-11T02:48:20.114Z,34.00
2022-12-11T02:49:20.110Z,34.00
2022-12-11T02:50:20.097Z,34.16
2022-12-11T02:51:20.297Z,33.84
2022-12-11T02:52:20.057Z,34.00
2022-12-11T02:53:20.066Z,34.48
2022-12-11T02:54:20.032Z,33.84
2022-12-11T02:55:20.038Z,34.00
2022-12-11T02:56:20.032Z,34.16
2022-12-11T02:57:20.115Z,34.16
2022-12-11T02:58:19.947Z,34.00
2022-12-11T02:59:19.982Z,34.16
2022-12-11T03:00:19.938Z,34.16
2022-12-11T03:01:19.967Z,33.84
2022-12-11T03:02:19.984Z,34.32
2022-12-11T03:03:20.114Z,34.16
2022-12-11T03:04:20.221Z,34.32
2022-12-11T03:05:19.875Z,34.32
2022-12-11T03:06:19.846Z,33.68
2022-12-11T03:07:19.855Z,34.32
2022-12-11T03:08:19.894Z,34.16
2022-12-11T03:09:19.921Z,34.16
2022-12-11T03:10:19.796Z,34.00
2022-12-11T03:11:19.815Z,34.48
2022-12-11T03:12:19.765Z,34.16
2022-12-11T03:13:19.769Z,34.00
2022-12-11T03:14:19.790Z,33.84
2022-12-11T03:15:19.827Z,33.84
2022-12-11T03:16:19.761Z,34.16
2022-12-11T03:17:19.732Z,34.16
2022-12-11T03:18:19.683Z,34.16
2022-12-11T03:19:19.736Z,34.16
2022-12-11T03:20:19.688Z,33.84
2022-12-11T03:21:19.874Z,35.13
2022-12-11T03:22:19.631Z,34.16
2022-12-11T03:23:19.635Z,34.16
2022-12-11T03:24:19.623Z,34.16
2022-12-11T03:25:19.630Z,34.16
2022-12-11T03:26:19.608Z,33.68
2022-12-11T03:27:19.683Z,33.84
2022-12-11T03:28:19.543Z,34.48
2022-12-11T03:29:19.561Z,34.16
2022-12-11T03:30:19.535Z,33.84
2022-12-11T03:31:19.537Z,33.84
2022-12-11T03:32:19.526Z,34.16
2022-12-11T03:33:19.614Z,34.16
2022-12-11T03:34:19.470Z,34.16
2022-12-11T03:35:19.494Z,34.16
2022-12-11T03:36:19.450Z,34.16
2022-12-11T03:37:19.446Z,33.84
2022-12-11T03:38:19.455Z,34.00
2022-12-11T03:39:19.591Z,34.00
2022-12-11T03:40:19.382Z,34.80
2022-12-11T03:41:19.390Z,33.84
2022-12-11T03:42:19.354Z,33.84
2022-12-11T03:43:19.393Z,34.16
2022-12-11T03:44:19.364Z,34.32
2022-12-11T03:45:19.463Z,34.16
2022-12-11T03:46:19.383Z,34.32
2022-12-11T03:47:19.318Z,34.16
2022-12-11T03:48:19.267Z,34.16
2022-12-11T03:49:19.314Z,33.84
2022-12-11T03:50:19.610Z,34.16
2022-12-11T03:51:19.382Z,34.16
2022-12-11T03:52:19.228Z,33.84
2022-12-11T03:53:19.229Z,34.16
2022-12-11T03:54:19.210Z,34.00
2022-12-11T03:55:19.195Z,34.32
2022-12-11T03:56:19.201Z,33.84
2022-12-11T03:57:19.390Z,34.00
2022-12-11T03:58:19.151Z,34.00
2022-12-11T03:59:19.152Z,34.00
2022-12-11T04:00:19.164Z,34.16
2022-12-11T04:01:19.142Z,33.52
2022-12-11T04:02:19.119Z,34.00
2022-12-11T04:03:19.259Z,34.16
2022-12-11T04:04:19.101Z,34.00
2022-12-11T04:05:19.067Z,33.84
2022-12-11T04:06:19.039Z,34.16
2022-12-11T04:07:19.069Z,33.84
2022-12-11T04:08:19.076Z,34.32
2022-12-11T04:09:19.223Z,34.00
2022-12-11T04:10:19.014Z,34.80
2022-12-11T04:11:18.976Z,33.52
2022-12-11T04:12:19.009Z,34.00
2022-12-11T04:13:18.929Z,34.00
2022-12-11T04:14:19.027Z,34.16
2022-12-11T04:15:19.037Z,40.44
2022-12-11T04:16:18.950Z,34.32
2022-12-11T04:17:18.884Z,34.00
2022-12-11T04:18:18.893Z,35.61
2022-12-11T04:19:18.859Z,34.16
2022-12-11T04:20:18.884Z,34.32
2022-12-11T04:21:18.979Z,34.16
2022-12-11T04:22:18.855Z,34.32
2022-12-11T04:23:18.785Z,34.00
2022-12-11T04:24:18.800Z,34.16
2022-12-11T04:25:18.943Z,34.00
2022-12-11T04:26:18.815Z,35.13
2022-12-11T04:27:18.754Z,35.61
2022-12-11T04:28:18.755Z,34.48
2022-12-11T04:29:18.715Z,33.68
2022-12-11T04:30:18.721Z,34.16
2022-12-11T04:31:18.940Z,34.00
2022-12-11T04:32:18.712Z,34.16
2022-12-11T04:33:18.661Z,34.16
2022-12-11T04:34:18.673Z,34.00
2022-12-11T04:35:18.694Z,33.84
2022-12-11T04:36:18.648Z,34.16
2022-12-11T04:37:18.772Z,33.84
2022-12-11T04:38:18.645Z,34.16
2022-12-11T04:39:18.630Z,34.00
2022-12-11T04:40:18.605Z,34.16
2022-12-11T04:41:18.546Z,34.16
2022-12-11T04:42:18.599Z,34.16
2022-12-11T04:43:18.645Z,34.16
2022-12-11T04:44:18.591Z,34.00
2022-12-11T04:45:18.553Z,34.32
2022-12-11T04:46:18.531Z,34.00
2022-12-11T04:47:18.471Z,34.00
2022-12-11T04:48:18.480Z,34.00
2022-12-11T04:49:18.565Z,34.16
2022-12-11T04:50:18.501Z,34.00
2022-12-11T04:51:18.410Z,34.16
2022-12-11T04:52:18.410Z,34.16
2022-12-11T04:53:18.384Z,34.16
2022-12-11T04:54:18.429Z,33.84
2022-12-11T04:55:18.587Z,34.16
2022-12-11T04:56:18.555Z,34.00
2022-12-11T04:57:18.339Z,34.00
2022-12-11T04:58:18.387Z,34.32
2022-12-11T04:59:18.304Z,33.68
2022-12-11T05:00:18.425Z,34.00
2022-12-11T05:01:18.451Z,34.00
2022-12-11T05:02:18.338Z,34.00
2022-12-11T05:03:18.261Z,34.16
2022-12-11T05:04:18.283Z,34.00
2022-12-11T05:05:18.225Z,34.16
2022-12-11T05:06:18.255Z,34.00
2022-12-11T05:07:18.300Z,33.35
2022-12-11T05:08:18.275Z,34.00
2022-12-11T05:09:18.178Z,46.41
2022-12-11T05:10:18.232Z,34.16
2022-12-11T05:11:18.140Z,34.80
2022-12-11T05:12:18.161Z,33.19
2022-12-11T05:13:18.219Z,34.16
2022-12-11T05:14:18.151Z,34.00
2022-12-11T05:15:18.075Z,34.16
2022-12-11T05:16:18.158Z,34.00
2022-12-11T05:17:18.051Z,34.00
2022-12-11T05:18:18.064Z,34.48
2022-12-11T05:19:18.227Z,33.84
2022-12-11T05:20:18.149Z,34.00
2022-12-11T05:21:18.051Z,34.16
2022-12-11T05:22:18.002Z,33.84
2022-12-11T05:23:17.965Z,34.64
2022-12-11T05:24:18.005Z,34.00
2022-12-11T05:25:18.075Z,34.16
2022-12-11T05:26:17.979Z,35.45
2022-12-11T05:27:17.914Z,34.32
2022-12-11T05:28:17.937Z,34.16
2022-12-11T05:29:17.884Z,34.16
2022-12-11T05:30:17.902Z,34.32
2022-12-11T05:31:18.363Z,34.48
2022-12-11T05:32:17.908Z,34.16
2022-12-11T05:33:17.843Z,34.16
2022-12-11T05:34:17.882Z,34.48
2022-12-11T05:35:17.812Z,34.97
2022-12-11T05:36:17.826Z,34.32
2022-12-11T05:37:17.941Z,34.00
2022-12-11T05:38:17.842Z,33.84
2022-12-11T05:39:17.763Z,34.16
2022-12-11T05:40:17.773Z,34.00
2022-12-11T05:41:17.720Z,34.16
2022-12-11T05:42:17.731Z,34.16
2022-12-11T05:43:17.970Z,34.16
2022-12-11T05:44:17.721Z,33.84
2022-12-11T05:45:17.676Z,34.32
2022-12-11T05:46:17.844Z,34.32
2022-12-11T05:47:17.638Z,34.00
2022-12-11T05:48:17.683Z,34.00
2022-12-11T05:49:19.981Z,34.16
2022-12-11T05:50:17.680Z,34.16
2022-12-11T05:51:17.739Z,34.32
2022-12-11T05:52:17.587Z,34.16
2022-12-11T05:53:17.572Z,34.16
2022-12-11T05:54:18.367Z,34.16
2022-12-11T05:55:17.680Z,34.48
2022-12-11T05:56:17.577Z,34.32
2022-12-11T05:57:17.510Z,34.00
2022-12-11T05:58:17.550Z,34.00
2022-12-11T05:59:17.502Z,34.16
2022-12-11T06:00:17.495Z,34.32
2022-12-11T06:01:17.548Z,34.16
2022-12-11T06:02:17.642Z,34.32
2022-12-11T06:03:17.506Z,34.16
2022-12-11T06:04:17.443Z,34.80
2022-12-11T06:05:17.383Z,34.32
2022-12-11T06:06:17.414Z,34.32
2022-12-11T06:07:17.457Z,34.48
2022-12-11T06:08:17.533Z,34.16
2022-12-11T06:09:17.351Z,34.32
2022-12-11T06:10:17.362Z,34.16
2022-12-11T06:11:22.354Z,34.32
2022-12-11T06:12:18.327Z,34.00
2022-12-11T06:13:17.406Z,34.32
2022-12-11T06:14:17.351Z,34.64
2022-12-11T06:15:17.259Z,34.32
2022-12-11T06:16:17.317Z,34.16
2022-12-11T06:17:17.230Z,34.32
2022-12-11T06:18:17.251Z,34.32
2022-12-11T06:19:17.329Z,34.32
2022-12-11T06:20:17.282Z,34.00
2022-12-11T06:21:17.187Z,34.00
2022-12-11T06:22:17.179Z,34.48
2022-12-11T06:23:17.161Z,34.16
2022-12-11T06:24:17.224Z,34.48
2022-12-11T06:25:17.278Z,34.16
2022-12-11T06:26:17.186Z,34.16
2022-12-11T06:27:17.104Z,34.16
2022-12-11T06:28:17.120Z,34.32
2022-12-11T06:29:17.072Z,34.48
2022-12-11T06:30:17.072Z,34.16
2022-12-11T06:31:17.756Z,34.32
2022-12-11T06:32:17.089Z,34.16
2022-12-11T06:33:17.008Z,34.16
2022-12-11T06:34:17.043Z,34.32
2022-12-11T06:35:16.995Z,34.16
2022-12-11T06:36:17.005Z,34.32
2022-12-11T06:37:17.201Z,34.32
2022-12-11T06:38:17.014Z,34.16
2022-12-11T06:39:16.933Z,34.16
2022-12-11T06:40:17.013Z,34.16
2022-12-11T06:41:17.071Z,34.16
2022-12-11T06:42:16.933Z,34.32
2022-12-11T06:43:16.870Z,34.32
2022-12-11T06:44:16.955Z,34.32
2022-12-11T06:45:16.851Z,34.00
2022-12-11T06:46:16.872Z,35.13
2022-12-11T06:47:16.937Z,34.16
2022-12-11T06:48:16.828Z,34.32
2022-12-11T06:49:17.556Z,34.00
2022-12-11T06:50:16.833Z,34.16
2022-12-11T06:51:16.784Z,34.32
2022-12-11T06:52:18.692Z,34.16
2022-12-11T06:53:16.972Z,34.32
2022-12-11T06:54:16.743Z,34.00
2022-12-11T06:55:16.705Z,34.16
2022-12-11T06:56:16.760Z,34.32
2022-12-11T06:57:16.701Z,34.00
2022-12-11T06:58:16.696Z,34.16
2022-12-11T06:59:16.755Z,34.16
2022-12-11T07:00:16.680Z,34.00
2022-12-11T07:01:16.664Z,34.48
2022-12-11T07:02:16.722Z,34.16
2022-12-11T07:03:16.590Z,34.48
2022-12-11T07:04:16.631Z,34.32
2022-12-11T07:05:16.667Z,33.84
2022-12-11T07:06:16.603Z,34.32
2022-12-11T07:07:16.556Z,34.16
2022-12-11T07:08:16.743Z,34.32
2022-12-11T07:09:16.566Z,34.16
2022-12-11T07:10:16.539Z,34.48
2022-12-11T07:11:16.527Z,34.32
2022-12-11T07:12:16.503Z,34.16
2022-12-11T07:13:16.468Z,34.16
2022-12-11T07:14:16.525Z,34.00
2022-12-11T07:15:16.441Z,33.84
2022-12-11T07:16:16.529Z,34.16
2022-12-11T07:17:16.494Z,34.16
2022-12-11T07:18:16.448Z,34.16
2022-12-11T07:19:16.607Z,34.48
2022-12-11T07:20:17.386Z,34.00
2022-12-11T07:21:16.350Z,34.00
2022-12-11T07:22:16.372Z,35.29
2022-12-11T07:23:16.606Z,34.48
2022-12-11T07:24:16.346Z,34.64
2022-12-11T07:25:16.366Z,34.32
2022-12-11T07:26:16.363Z,34.48
2022-12-11T07:27:16.265Z,34.16
2022-12-11T07:28:16.886Z,34.32
2022-12-11T07:29:16.570Z,34.32
2022-12-11T07:30:16.260Z,34.16
2022-12-11T07:31:16.301Z,34.16
2022-12-11T07:32:16.985Z,34.16
2022-12-11T07:33:16.179Z,34.48
2022-12-11T07:34:16.227Z,34.32
2022-12-11T07:35:16.382Z,34.48
2022-12-11T07:36:16.212Z,34.32
2022-12-11T07:37:16.123Z,34.32
2022-12-11T07:38:17.144Z,34.32
2022-12-11T07:39:16.250Z,34.64
2022-12-11T07:40:16.125Z,34.32
2022-12-11T07:41:16.276Z,34.16
2022-12-11T07:42:16.357Z,34.32
2022-12-11T07:43:16.045Z,34.32
2022-12-11T07:44:16.128Z,34.32
2022-12-11T07:45:16.229Z,34.97
2022-12-11T07:46:16.099Z,34.48
2022-12-11T07:47:15.984Z,34.32
2022-12-11T07:48:16.062Z,35.45
2022-12-11T07:49:15.969Z,34.16
2022-12-11T07:50:16.143Z,34.48
2022-12-11T07:51:16.027Z,34.32
2022-12-11T07:52:15.979Z,34.32
2022-12-11T07:53:16.124Z,34.32
2022-12-11T07:54:16.824Z,34.64
2022-12-11T07:55:16.853Z,34.48
2022-12-11T07:56:16.379Z,34.32
2022-12-11T07:57:15.848Z,34.32
2022-12-11T07:58:15.900Z,34.32
2022-12-11T07:59:15.906Z,34.64
2022-12-11T08:00:15.883Z,34.48
2022-12-11T08:01:15.926Z,34.32
2022-12-11T08:02:16.589Z,34.48
2022-12-11T08:03:16.244Z,34.32
2022-12-11T08:04:15.939Z,34.48
2022-12-11T08:05:15.793Z,34.32
2022-12-11T08:06:15.810Z,34.32
2022-12-11T08:07:15.722Z,34.48
2022-12-11T08:08:15.967Z,34.32
2022-12-11T08:09:21.049Z,34.48
2022-12-11T08:10:16.837Z,34.32
2022-12-11T08:11:15.670Z,34.00
2022-12-11T08:12:15.847Z,34.48
2022-12-11T08:13:16.146Z,34.16
2022-12-11T08:14:16.348Z,34.32
2022-12-11T08:15:15.636Z,34.32
2022-12-11T08:16:15.725Z,34.48
2022-12-11T08:17:15.596Z,35.13
2022-12-11T08:18:15.717Z,34.32
2022-12-11T08:19:15.586Z,34.97
2022-12-11T08:20:15.619Z,34.32
2022-12-11T08:21:15.559Z,34.32
2022-12-11T08:22:15.566Z,34.32
2022-12-11T08:23:15.561Z,34.64
2022-12-11T08:24:15.546Z,35.61
2022-12-11T08:25:15.538Z,36.90
2022-12-11T08:26:15.506Z,38.35
2022-12-11T08:27:15.490Z,37.87
2022-12-11T08:28:15.496Z,34.32
2022-12-11T08:29:15.481Z,34.32
2022-12-11T08:30:15.458Z,49.79
2022-12-11T08:31:15.538Z,34.32
2022-12-11T08:32:15.411Z,34.16
2022-12-11T08:33:15.430Z,35.13
2022-12-11T08:34:15.460Z,44.96
2022-12-11T08:35:15.463Z,38.67
2022-12-11T08:36:15.375Z,35.93
2022-12-11T08:37:15.362Z,35.13
2022-12-11T08:38:15.390Z,34.80
2022-12-11T08:39:15.338Z,34.48
2022-12-11T08:40:15.386Z,34.32
2022-12-11T08:41:15.409Z,37.22
2022-12-11T08:42:15.264Z,34.32
2022-12-11T08:43:15.303Z,40.61
2022-12-11T08:44:16.876Z,34.16
2022-12-11T08:45:15.267Z,34.00
2022-12-11T08:46:15.216Z,34.97
2022-12-11T08:47:15.211Z,35.61
2022-12-11T08:48:15.163Z,43.67
2022-12-11T08:49:15.281Z,34.32
2022-12-11T08:50:15.175Z,40.77
2022-12-11T08:51:15.597Z,38.35
2022-12-11T08:52:15.183Z,34.97
2022-12-11T08:53:15.131Z,38.83
2022-12-11T08:54:15.153Z,34.48
2022-12-11T08:55:15.136Z,34.16
2022-12-11T08:56:15.102Z,34.16
2022-12-11T08:57:15.104Z,35.93
2022-12-11T08:58:15.110Z,34.16
2022-12-11T08:59:15.050Z,34.32
2022-12-11T09:00:15.032Z,34.16
2022-12-11T09:01:15.092Z,34.16
2022-12-11T09:02:15.021Z,33.84
2022-12-11T09:03:15.005Z,35.93
2022-12-11T09:04:15.024Z,34.16
2022-12-11T09:05:14.963Z,37.06
2022-12-11T09:06:14.948Z,37.06
2022-12-11T09:07:15.290Z,39.32
2022-12-11T09:08:14.969Z,38.35
2022-12-11T09:09:14.999Z,38.03
2022-12-11T09:10:14.964Z,42.70
2022-12-11T09:11:14.871Z,48.98
2022-12-11T09:12:14.837Z,48.02
2022-12-11T09:13:14.865Z,34.16
2022-12-11T09:14:14.869Z,37.06
2022-12-11T09:15:14.828Z,33.84
2022-12-11T09:16:14.838Z,33.84
2022-12-11T09:17:14.791Z,34.32
2022-12-11T09:18:14.738Z,33.84
2022-12-11T09:19:14.757Z,36.25
2022-12-11T09:20:14.903Z,33.84
2022-12-11T09:21:14.780Z,33.84
2022-12-11T09:22:14.779Z,33.84
2022-12-11T09:23:14.716Z,34.16
2022-12-11T09:24:14.679Z,34.00
2022-12-11T09:25:14.678Z,33.84
2022-12-11T09:26:14.695Z,34.48
2022-12-11T09:27:14.674Z,33.84
2022-12-11T09:28:14.647Z,34.16
2022-12-11T09:29:14.638Z,35.45
2022-12-11T09:30:14.603Z,34.97
2022-12-11T09:31:14.727Z,33.84
2022-12-11T09:32:14.600Z,33.84
2022-12-11T09:33:14.576Z,33.84
2022-12-11T09:34:14.527Z,34.80
2022-12-11T09:35:14.538Z,35.29
2022-12-11T09:36:14.500Z,33.52
2022-12-11T09:37:14.523Z,38.67
2022-12-11T09:38:14.562Z,33.68
2022-12-11T09:39:14.528Z,37.54
2022-12-11T09:40:14.486Z,52.05
2022-12-11T09:41:14.459Z,52.53
2022-12-11T09:42:14.527Z,55.27
2022-12-11T09:43:14.425Z,53.01
2022-12-11T09:44:14.447Z,52.69
2022-12-11T09:45:14.392Z,53.01
2022-12-11T09:46:14.418Z,61.07
2022-12-11T09:47:14.367Z,52.69
2022-12-11T09:48:14.335Z,52.37
2022-12-11T09:49:14.375Z,43.34
2022-12-11T09:50:14.325Z,46.41
2022-12-11T09:51:14.337Z,55.11
2022-12-11T09:52:14.342Z,42.70
2022-12-11T09:53:14.283Z,49.47
2022-12-11T09:54:14.291Z,47.53
2022-12-11T09:55:14.292Z,53.17
2022-12-11T09:56:14.282Z,59.78
2022-12-11T09:57:14.261Z,52.85
2022-12-11T09:58:14.209Z,34.64
2022-12-11T09:59:14.214Z,43.34
2022-12-11T10:00:14.180Z,33.68
2022-12-11T10:01:14.251Z,33.03
2022-12-11T10:02:14.204Z,49.63
2022-12-11T10:03:14.167Z,43.02
2022-12-11T10:04:14.158Z,34.16
2022-12-11T10:05:14.286Z,36.58
2022-12-11T10:06:14.087Z,40.61
2022-12-11T10:07:14.139Z,55.75
2022-12-11T10:08:14.145Z,34.48
2022-12-11T10:09:14.087Z,34.32
2022-12-11T10:10:15.004Z,69.45
2022-12-11T10:11:14.083Z,35.93
2022-12-11T10:12:14.024Z,39.96
2022-12-11T10:13:14.034Z,40.61
2022-12-11T10:14:14.004Z,36.09
2022-12-11T10:15:14.356Z,38.35
2022-12-11T10:16:13.990Z,40.44
2022-12-11T10:17:13.976Z,34.97
2022-12-11T10:18:13.933Z,34.16
2022-12-11T10:19:14.019Z,33.52
2022-12-11T10:20:14.050Z,34.48
2022-12-11T10:21:13.909Z,33.68
2022-12-11T10:22:13.959Z,33.84
2022-12-11T10:23:13.923Z,33.35
2022-12-11T10:24:24.355Z,33.84
2022-12-11T10:25:15.040Z,34.32
2022-12-11T10:26:13.919Z,33.35
2022-12-11T10:27:13.843Z,34.16
2022-12-11T10:28:13.870Z,34.16
2022-12-11T10:29:13.910Z,33.84
2022-12-11T10:30:13.780Z,35.13
2022-12-11T10:31:14.201Z,36.25
2022-12-11T10:32:13.773Z,37.87
2022-12-11T10:33:13.741Z,33.52
2022-12-11T10:34:13.941Z,33.52
2022-12-11T10:35:14.058Z,33.52
2022-12-11T10:36:13.695Z,33.35
2022-12-11T10:37:13.754Z,33.35
2022-12-11T10:38:13.686Z,35.13
2022-12-11T10:39:13.679Z,33.19
2022-12-11T10:40:13.807Z,33.84
2022-12-11T10:41:13.649Z,33.68
2022-12-11T10:42:13.738Z,33.84
2022-12-11T10:43:13.696Z,33.68
2022-12-11T10:44:13.580Z,33.35
2022-12-11T10:45:13.766Z,33.35
2022-12-11T10:46:13.778Z,33.19
2022-12-11T10:47:13.566Z,33.19
2022-12-11T10:48:13.519Z,33.19
2022-12-11T10:49:13.665Z,32.39
2022-12-11T10:50:13.486Z,32.71
2022-12-11T10:51:13.535Z,33.19
2022-12-11T10:52:13.550Z,33.35
2022-12-11T10:53:13.485Z,33.19
2022-12-11T10:54:13.479Z,36.90
2022-12-11T10:55:13.712Z,33.03
2022-12-11T10:56:13.433Z,35.61
2022-12-11T10:57:13.447Z,34.32
2022-12-11T10:58:13.460Z,33.84
2022-12-11T10:59:13.406Z,56.72
2022-12-11T11:00:13.381Z,35.13
2022-12-11T11:01:13.476Z,33.52
2022-12-11T11:02:13.329Z,60.26
2022-12-11T11:03:13.353Z,40.28
2022-12-11T11:04:13.335Z,35.77
2022-12-11T11:05:13.631Z,38.35
2022-12-11T11:06:13.271Z,35.93
2022-12-11T11:07:13.343Z,45.60
2022-12-11T11:08:13.294Z,52.21
2022-12-11T11:09:13.400Z,34.64
2022-12-11T11:10:13.374Z,35.77
2022-12-11T11:11:13.279Z,46.41
2022-12-11T11:12:13.234Z,34.64
2022-12-11T11:13:13.235Z,33.35
2022-12-11T11:14:13.162Z,33.68
2022-12-11T11:15:13.425Z,45.44
2022-12-11T11:16:15.108Z,34.48
2022-12-11T11:17:13.188Z,34.00
2022-12-11T11:18:13.117Z,39.16
2022-12-11T11:19:13.273Z,36.42
2022-12-11T11:20:13.094Z,34.32
2022-12-11T11:21:13.085Z,33.68
2022-12-11T11:22:13.104Z,33.68
2022-12-11T11:23:13.095Z,34.64
2022-12-11T11:24:13.051Z,43.34
2022-12-11T11:25:13.393Z,42.06
2022-12-11T11:26:12.991Z,43.51
2022-12-11T11:27:13.877Z,45.76
2022-12-11T11:28:13.056Z,41.89
2022-12-11T11:29:12.980Z,41.73
2022-12-11T11:30:12.950Z,54.46
2022-12-11T11:31:13.155Z,41.57
2022-12-11T11:32:12.929Z,38.35
2022-12-11T11:33:13.004Z,38.99
2022-12-11T11:34:12.893Z,41.57
2022-12-11T11:35:13.228Z,39.32
2022-12-11T11:36:12.858Z,36.90
2022-12-11T11:37:12.907Z,37.87
2022-12-11T11:38:12.845Z,37.54
2022-12-11T11:39:13.007Z,40.12
2022-12-11T11:40:12.798Z,38.99
2022-12-11T11:41:15.113Z,38.35
2022-12-11T11:42:12.790Z,51.88
2022-12-11T11:43:12.853Z,46.73
2022-12-11T11:44:12.752Z,49.31
2022-12-11T11:45:13.133Z,47.70
2022-12-11T11:46:12.775Z,47.21
2022-12-11T11:47:12.726Z,46.73
2022-12-11T11:48:12.697Z,52.85
2022-12-11T11:49:12.747Z,49.63
2022-12-11T11:50:12.737Z,58.17
2022-12-11T11:51:12.693Z,56.24
2022-12-11T11:52:12.669Z,55.27
2022-12-11T11:53:12.656Z,52.69
2022-12-11T11:54:12.623Z,52.53
2022-12-11T11:55:15.193Z,52.53
2022-12-11T11:56:13.789Z,57.52
2022-12-11T11:57:12.629Z,56.72
2022-12-11T11:58:12.542Z,49.79
2022-12-11T11:59:12.619Z,50.76
2022-12-11T12:00:12.555Z,54.95
2022-12-11T12:01:12.578Z,50.27
2022-12-11T12:02:12.526Z,48.82
2022-12-11T12:03:12.557Z,48.66
2022-12-11T12:04:12.470Z,50.27
2022-12-11T12:05:12.615Z,49.95
2022-12-11T12:06:15.338Z,55.11
2022-12-11T12:07:12.477Z,49.47
2022-12-11T12:08:12.548Z,57.52
2022-12-11T12:09:12.437Z,64.45
2022-12-11T12:10:12.544Z,53.33
2022-12-11T12:11:12.420Z,54.46
2022-12-11T12:12:12.384Z,52.85
2022-12-11T12:13:44.375Z,64.13
2022-12-11T12:14:43.797Z,56.07
2022-12-11T12:15:13.609Z,60.26
2022-12-11T12:16:43.816Z,52.69
2022-12-11T12:17:13.367Z,53.33
2022-12-11T12:18:12.290Z,37.38
2022-12-11T12:19:12.387Z,38.67
2022-12-11T12:20:12.339Z,38.83
2022-12-11T12:21:12.261Z,38.03
2022-12-11T12:22:12.256Z,37.71
2022-12-11T12:23:12.256Z,37.87
2022-12-11T12:24:12.228Z,38.35
2022-12-11T12:25:12.642Z,39.64
2022-12-11T12:26:12.407Z,39.96
2022-12-11T12:27:43.383Z,40.61
2022-12-11T12:28:13.158Z,41.89
2022-12-11T12:29:12.173Z,42.22
2022-12-11T12:30:15.029Z,42.70
2022-12-11T12:31:13.240Z,47.70
2022-12-11T12:32:12.135Z,42.38
2022-12-11T12:33:12.135Z,40.44
2022-12-11T12:34:12.072Z,40.77
2022-12-11T12:35:12.242Z,43.34
2022-12-11T12:36:12.147Z,40.61
2022-12-11T12:37:12.281Z,39.48
2022-12-11T12:38:12.134Z,38.35
2022-12-11T12:39:12.035Z,40.44
2022-12-11T12:40:12.115Z,39.48
2022-12-11T12:41:12.004Z,38.35
2022-12-11T12:42:11.998Z,38.35
2022-12-11T12:43:11.978Z,38.35
2022-12-11T12:44:12.038Z,37.87
2022-12-11T12:45:12.078Z,37.54
2022-12-11T12:46:12.023Z,37.54
2022-12-11T12:47:11.892Z,38.35
2022-12-11T12:48:11.918Z,36.90
2022-12-11T12:49:11.906Z,55.27
2022-12-11T12:50:11.892Z,58.17
2022-12-11T12:51:11.952Z,70.25
2022-12-11T12:52:11.884Z,41.41